sensor_id;sensor_type;location;lat;lon;timestamp;P1;durP1;ratioP1;P2;durP2;ratioP2
76989;SDS011;65924;47.250;11.332;2024-02-28T00:00:24;17.90;;;12.30;;
76989;SDS011;65924;47.250;11.332;2024-02-28T00:00:55;19.00;;;12.20;;
76989;SDS011;65924;47.250;11.332;2024-02-28T00:01:25;22.70;;;13.60;;
76989;SDS011;65924;47.250;11.332;2024-02-28T00:01:56;21.90;;;13.00;;
76989;SDS011;65924;47.250;11.332;2024-02-28T00:02:27;24.00;;;14.80;;
76989;SDS011;65924;47.250;11.332;2024-02-28T00:02:58;24.80;;;13.70;;
76989;SDS011;65924;47.250;11.332;2024-02-28T00:03:28;24.90;;;15.00;;
76989;SDS011;65924;47.250;11.332;2024-02-28T00:03:59;19.90;;;13.90;;
76989;SDS011;65924;47.250;11.332;2024-02-28T00:04:30;21.00;;;13.20;;
76989;SDS011;65924;47.250;11.332;2024-02-28T00:05:00;19.50;;;13.10;;
76989;SDS011;65924;47.250;11.332;2024-02-28T00:05:31;20.50;;;13.80;;
76989;SDS011;65924;47.250;11.332;2024-02-28T00:06:02;20.10;;;14.00;;
76989;SDS011;65924;47.250;11.332;2024-02-28T00:06:32;20.60;;;14.00;;
76989;SDS011;65924;47.250;11.332;2024-02-28T00:07:03;23.20;;;14.90;;
76989;SDS011;65924;47.250;11.332;2024-02-28T00:07:33;24.40;;;15.30;;
76989;SDS011;65924;47.250;11.332;2024-02-28T00:08:05;20.50;;;15.50;;
76989;SDS011;65924;47.250;11.332;2024-02-28T00:08:35;21.00;;;15.10;;
76989;SDS011;65924;47.250;11.332;2024-02-28T00:09:05;20.30;;;14.50;;
76989;SDS011;65924;47.250;11.332;2024-02-28T00:09:36;20.90;;;15.10;;
76989;SDS011;65924;47.250;11.332;2024-02-28T00:10:07;21.90;;;15.60;;
76989;SDS011;65924;47.250;11.332;2024-02-28T00:10:37;24.90;;;16.20;;
76989;SDS011;65924;47.250;11.332;2024-02-28T00:11:08;24.70;;;16.00;;
76989;SDS011;65924;47.250;11.332;2024-02-28T00:11:42;22.10;;;15.50;;
76989;SDS011;65924;47.250;11.332;2024-02-28T00:12:13;22.10;;;16.00;;
76989;SDS011;65924;47.250;11.332;2024-02-28T00:12:45;22.10;;;15.90;;
76989;SDS011;65924;47.250;11.332;2024-02-28T00:13:15;22.80;;;16.20;;
76989;SDS011;65924;47.250;11.332;2024-02-28T00:13:46;21.10;;;14.90;;
76989;SDS011;65924;47.250;11.332;2024-02-28T00:14:17;26.40;;;15.40;;
76989;SDS011;65924;47.250;11.332;2024-02-28T00:14:47;26.70;;;15.90;;
76989;SDS011;65924;47.250;11.332;2024-02-28T00:15:18;20.90;;;14.20;;
76989;SDS011;65924;47.250;11.332;2024-02-28T00:15:48;23.00;;;14.80;;
76989;SDS011;65924;47.250;11.332;2024-02-28T00:16:19;21.10;;;14.20;;
76989;SDS011;65924;47.250;11.332;2024-02-28T00:16:49;24.30;;;14.80;;
76989;SDS011;65924;47.250;11.332;2024-02-28T00:17:20;19.90;;;13.70;;
76989;SDS011;65924;47.250;11.332;2024-02-28T00:17:57;20.70;;;14.00;;
76989;SDS011;65924;47.250;11.332;2024-02-28T00:18:27;26.60;;;14.80;;
76989;SDS011;65924;47.250;11.332;2024-02-28T00:18:58;23.10;;;14.20;;
76989;SDS011;65924;47.250;11.332;2024-02-28T00:19:28;20.40;;;13.20;;
76989;SDS011;65924;47.250;11.332;2024-02-28T00:19:59;21.20;;;13.70;;
76989;SDS011;65924;47.250;11.332;2024-02-28T00:20:29;20.20;;;13.00;;
76989;SDS011;65924;47.250;11.332;2024-02-28T00:21:00;21.50;;;13.80;;
76989;SDS011;65924;47.250;11.332;2024-02-28T00:21:30;22.40;;;13.80;;
76989;SDS011;65924;47.250;11.332;2024-02-28T00:22:01;19.90;;;13.80;;
76989;SDS011;65924;47.250;11.332;2024-02-28T00:22:31;22.00;;;14.40;;
76989;SDS011;65924;47.250;11.332;2024-02-28T00:23:02;19.10;;;13.00;;
76989;SDS011;65924;47.250;11.332;2024-02-28T00:23:32;20.80;;;14.40;;
76989;SDS011;65924;47.250;11.332;2024-02-28T00:24:04;19.50;;;13.50;;
76989;SDS011;65924;47.250;11.332;2024-02-28T00:24:34;19.80;;;13.60;;
76989;SDS011;65924;47.250;11.332;2024-02-28T00:25:05;19.40;;;14.20;;
76989;SDS011;65924;47.250;11.332;2024-02-28T00:25:36;20.80;;;15.10;;
76989;SDS011;65924;47.250;11.332;2024-02-28T00:26:07;19.40;;;13.80;;
76989;SDS011;65924;47.250;11.332;2024-02-28T00:26:41;20.40;;;13.90;;
76989;SDS011;65924;47.250;11.332;2024-02-28T00:27:12;19.60;;;13.90;;
76989;SDS011;65924;47.250;11.332;2024-02-28T00:27:43;19.20;;;13.50;;
76989;SDS011;65924;47.250;11.332;2024-02-28T00:28:14;19.00;;;12.80;;
76989;SDS011;65924;47.250;11.332;2024-02-28T00:28:44;20.50;;;13.60;;
76989;SDS011;65924;47.250;11.332;2024-02-28T00:29:15;20.00;;;14.10;;
76989;SDS011;65924;47.250;11.332;2024-02-28T00:29:45;19.00;;;13.20;;
76989;SDS011;65924;47.250;11.332;2024-02-28T00:30:17;19.10;;;13.50;;
76989;SDS011;65924;47.250;11.332;2024-02-28T00:30:47;21.60;;;14.30;;
76989;SDS011;65924;47.250;11.332;2024-02-28T00:31:18;17.80;;;12.90;;
76989;SDS011;65924;47.250;11.332;2024-02-28T00:31:49;18.70;;;12.80;;
76989;SDS011;65924;47.250;11.332;2024-02-28T00:32:19;18.70;;;13.20;;
76989;SDS011;65924;47.250;11.332;2024-02-28T00:32:49;18.50;;;13.40;;
76989;SDS011;65924;47.250;11.332;2024-02-28T00:33:20;20.50;;;14.60;;
76989;SDS011;65924;47.250;11.332;2024-02-28T00:33:50;18.40;;;12.80;;
76989;SDS011;65924;47.250;11.332;2024-02-28T00:34:20;19.00;;;13.70;;
76989;SDS011;65924;47.250;11.332;2024-02-28T00:34:51;21.10;;;13.90;;
76989;SDS011;65924;47.250;11.332;2024-02-28T00:35:21;22.90;;;13.60;;
76989;SDS011;65924;47.250;11.332;2024-02-28T00:35:54;19.80;;;12.60;;
76989;SDS011;65924;47.250;11.332;2024-02-28T00:36:25;19.40;;;13.10;;
76989;SDS011;65924;47.250;11.332;2024-02-28T00:36:55;23.60;;;15.00;;
76989;SDS011;65924;47.250;11.332;2024-02-28T00:37:28;20.40;;;13.90;;
76989;SDS011;65924;47.250;11.332;2024-02-28T00:37:59;20.80;;;14.50;;
76989;SDS011;65924;47.250;11.332;2024-02-28T00:38:29;23.30;;;14.40;;
76989;SDS011;65924;47.250;11.332;2024-02-28T00:39:00;23.20;;;15.20;;
76989;SDS011;65924;47.250;11.332;2024-02-28T00:39:30;19.70;;;13.50;;
76989;SDS011;65924;47.250;11.332;2024-02-28T00:40:01;20.80;;;14.40;;
76989;SDS011;65924;47.250;11.332;2024-02-28T00:40:31;21.10;;;15.00;;
76989;SDS011;65924;47.250;11.332;2024-02-28T00:41:02;22.10;;;14.40;;
76989;SDS011;65924;47.250;11.332;2024-02-28T00:41:32;21.40;;;14.00;;
76989;SDS011;65924;47.250;11.332;2024-02-28T00:42:03;22.20;;;15.30;;
76989;SDS011;65924;47.250;11.332;2024-02-28T00:42:33;21.10;;;13.80;;
76989;SDS011;65924;47.250;11.332;2024-02-28T00:43:04;22.10;;;14.40;;
76989;SDS011;65924;47.250;11.332;2024-02-28T00:43:34;25.10;;;16.00;;
76989;SDS011;65924;47.250;11.332;2024-02-28T00:44:12;20.10;;;13.90;;
76989;SDS011;65924;47.250;11.332;2024-02-28T00:44:43;21.70;;;15.30;;
76989;SDS011;65924;47.250;11.332;2024-02-28T00:45:13;21.80;;;15.20;;
76989;SDS011;65924;47.250;11.332;2024-02-28T00:45:44;22.80;;;14.80;;
76989;SDS011;65924;47.250;11.332;2024-02-28T00:46:14;22.20;;;15.20;;
76989;SDS011;65924;47.250;11.332;2024-02-28T00:46:45;20.60;;;15.20;;
76989;SDS011;65924;47.250;11.332;2024-02-28T00:47:15;20.60;;;15.20;;
76989;SDS011;65924;47.250;11.332;2024-02-28T00:47:46;24.20;;;14.30;;
76989;SDS011;65924;47.250;11.332;2024-02-28T00:48:16;24.40;;;16.10;;
76989;SDS011;65924;47.250;11.332;2024-02-28T00:48:47;21.30;;;15.00;;
76989;SDS011;65924;47.250;11.332;2024-02-28T00:49:18;22.00;;;16.40;;
76989;SDS011;65924;47.250;11.332;2024-02-28T00:49:48;21.20;;;15.40;;
76989;SDS011;65924;47.250;11.332;2024-02-28T00:50:19;21.30;;;15.60;;
76989;SDS011;65924;47.250;11.332;2024-02-28T00:50:49;22.30;;;15.20;;
76989;SDS011;65924;47.250;11.332;2024-02-28T00:51:20;25.30;;;16.30;;
76989;SDS011;65924;47.250;11.332;2024-02-28T00:51:50;22.30;;;16.20;;
76989;SDS011;65924;47.250;11.332;2024-02-28T00:52:21;23.80;;;16.00;;
76989;SDS011;65924;47.250;11.332;2024-02-28T00:52:51;23.80;;;17.80;;
76989;SDS011;65924;47.250;11.332;2024-02-28T00:53:21;25.40;;;16.90;;
76989;SDS011;65924;47.250;11.332;2024-02-28T00:53:52;26.90;;;17.30;;
76989;SDS011;65924;47.250;11.332;2024-02-28T00:54:22;23.60;;;17.40;;
76989;SDS011;65924;47.250;11.332;2024-02-28T00:54:54;23.60;;;16.10;;
76989;SDS011;65924;47.250;11.332;2024-02-28T00:55:24;22.00;;;15.80;;
76989;SDS011;65924;47.250;11.332;2024-02-28T00:55:55;26.20;;;16.50;;
76989;SDS011;65924;47.250;11.332;2024-02-28T00:56:25;23.50;;;16.70;;
76989;SDS011;65924;47.250;11.332;2024-02-28T00:56:57;22.60;;;16.50;;
76989;SDS011;65924;47.250;11.332;2024-02-28T00:57:27;22.30;;;16.20;;
76989;SDS011;65924;47.250;11.332;2024-02-28T00:57:58;25.20;;;16.80;;
76989;SDS011;65924;47.250;11.332;2024-02-28T00:58:28;24.60;;;16.20;;
76989;SDS011;65924;47.250;11.332;2024-02-28T00:59:00;26.90;;;16.30;;
76989;SDS011;65924;47.250;11.332;2024-02-28T00:59:30;24.20;;;16.40;;
76989;SDS011;65924;47.250;11.332;2024-02-28T01:00:01;23.50;;;15.80;;
76989;SDS011;65924;47.250;11.332;2024-02-28T01:00:31;23.60;;;16.90;;
76989;SDS011;65924;47.250;11.332;2024-02-28T01:01:02;22.40;;;16.50;;
76989;SDS011;65924;47.250;11.332;2024-02-28T01:01:32;24.30;;;15.90;;
76989;SDS011;65924;47.250;11.332;2024-02-28T01:02:03;24.20;;;17.20;;
76989;SDS011;65924;47.250;11.332;2024-02-28T01:02:33;23.50;;;16.30;;
76989;SDS011;65924;47.250;11.332;2024-02-28T01:03:04;28.60;;;16.60;;
76989;SDS011;65924;47.250;11.332;2024-02-28T01:03:35;26.00;;;17.70;;
76989;SDS011;65924;47.250;11.332;2024-02-28T01:04:14;25.30;;;16.10;;
76989;SDS011;65924;47.250;11.332;2024-02-28T01:04:46;25.20;;;15.50;;
76989;SDS011;65924;47.250;11.332;2024-02-28T01:05:16;24.10;;;16.10;;
76989;SDS011;65924;47.250;11.332;2024-02-28T01:05:48;24.50;;;16.10;;
76989;SDS011;65924;47.250;11.332;2024-02-28T01:06:21;24.30;;;15.80;;
76989;SDS011;65924;47.250;11.332;2024-02-28T01:06:51;24.90;;;17.10;;
76989;SDS011;65924;47.250;11.332;2024-02-28T01:07:22;27.60;;;16.50;;
76989;SDS011;65924;47.250;11.332;2024-02-28T01:07:52;24.30;;;16.70;;
76989;SDS011;65924;47.250;11.332;2024-02-28T01:08:23;26.90;;;16.60;;
76989;SDS011;65924;47.250;11.332;2024-02-28T01:08:53;26.20;;;16.30;;
76989;SDS011;65924;47.250;11.332;2024-02-28T01:09:24;22.30;;;15.60;;
76989;SDS011;65924;47.250;11.332;2024-02-28T01:09:54;21.00;;;14.90;;
76989;SDS011;65924;47.250;11.332;2024-02-28T01:10:25;21.90;;;14.80;;
76989;SDS011;65924;47.250;11.332;2024-02-28T01:10:55;21.50;;;15.10;;
76989;SDS011;65924;47.250;11.332;2024-02-28T01:11:26;21.50;;;14.40;;
76989;SDS011;65924;47.250;11.332;2024-02-28T01:11:57;20.00;;;13.80;;
76989;SDS011;65924;47.250;11.332;2024-02-28T01:12:27;20.40;;;14.40;;
76989;SDS011;65924;47.250;11.332;2024-02-28T01:12:57;22.10;;;14.40;;
76989;SDS011;65924;47.250;11.332;2024-02-28T01:13:28;19.40;;;14.00;;
76989;SDS011;65924;47.250;11.332;2024-02-28T01:13:58;21.30;;;13.70;;
76989;SDS011;65924;47.250;11.332;2024-02-28T01:14:29;19.00;;;13.50;;
76989;SDS011;65924;47.250;11.332;2024-02-28T01:14:59;20.00;;;13.80;;
76989;SDS011;65924;47.250;11.332;2024-02-28T01:15:30;19.80;;;15.10;;
76989;SDS011;65924;47.250;11.332;2024-02-28T01:16:00;20.30;;;13.40;;
76989;SDS011;65924;47.250;11.332;2024-02-28T01:16:31;23.40;;;14.20;;
76989;SDS011;65924;47.250;11.332;2024-02-28T01:17:45;21.20;;;13.40;;
76989;SDS011;65924;47.250;11.332;2024-02-28T01:18:15;19.30;;;12.70;;
76989;SDS011;65924;47.250;11.332;2024-02-28T01:18:46;21.60;;;14.60;;
76989;SDS011;65924;47.250;11.332;2024-02-28T01:19:17;21.20;;;13.00;;
76989;SDS011;65924;47.250;11.332;2024-02-28T01:19:50;20.40;;;13.20;;
76989;SDS011;65924;47.250;11.332;2024-02-28T01:20:21;20.80;;;14.00;;
76989;SDS011;65924;47.250;11.332;2024-02-28T01:20:51;23.20;;;14.10;;
76989;SDS011;65924;47.250;11.332;2024-02-28T01:21:54;20.60;;;14.20;;
76989;SDS011;65924;47.250;11.332;2024-02-28T01:22:24;19.00;;;13.40;;
76989;SDS011;65924;47.250;11.332;2024-02-28T01:22:55;21.40;;;13.50;;
76989;SDS011;65924;47.250;11.332;2024-02-28T01:23:26;18.90;;;13.10;;
76989;SDS011;65924;47.250;11.332;2024-02-28T01:23:56;20.80;;;13.60;;
76989;SDS011;65924;47.250;11.332;2024-02-28T01:24:27;21.10;;;13.30;;
76989;SDS011;65924;47.250;11.332;2024-02-28T01:24:57;21.10;;;14.40;;
76989;SDS011;65924;47.250;11.332;2024-02-28T01:25:27;20.90;;;14.40;;
76989;SDS011;65924;47.250;11.332;2024-02-28T01:25:58;24.10;;;15.30;;
76989;SDS011;65924;47.250;11.332;2024-02-28T01:26:29;22.00;;;15.30;;
76989;SDS011;65924;47.250;11.332;2024-02-28T01:27:00;22.20;;;15.50;;
76989;SDS011;65924;47.250;11.332;2024-02-28T01:27:30;22.00;;;14.80;;
76989;SDS011;65924;47.250;11.332;2024-02-28T01:28:00;22.00;;;14.50;;
76989;SDS011;65924;47.250;11.332;2024-02-28T01:28:31;25.50;;;15.50;;
76989;SDS011;65924;47.250;11.332;2024-02-28T01:29:02;22.20;;;15.00;;
76989;SDS011;65924;47.250;11.332;2024-02-28T01:29:33;24.00;;;14.80;;
76989;SDS011;65924;47.250;11.332;2024-02-28T01:30:03;23.60;;;15.50;;
76989;SDS011;65924;47.250;11.332;2024-02-28T01:30:34;21.20;;;14.40;;
76989;SDS011;65924;47.250;11.332;2024-02-28T01:31:05;24.40;;;17.00;;
76989;SDS011;65924;47.250;11.332;2024-02-28T01:31:36;25.60;;;16.30;;
76989;SDS011;65924;47.250;11.332;2024-02-28T01:32:06;22.90;;;16.50;;
76989;SDS011;65924;47.250;11.332;2024-02-28T01:32:40;22.10;;;15.60;;
76989;SDS011;65924;47.250;11.332;2024-02-28T01:33:10;22.50;;;15.50;;
76989;SDS011;65924;47.250;11.332;2024-02-28T01:33:50;22.90;;;15.30;;
76989;SDS011;65924;47.250;11.332;2024-02-28T01:34:20;24.00;;;16.00;;
76989;SDS011;65924;47.250;11.332;2024-02-28T01:34:52;24.20;;;15.60;;
76989;SDS011;65924;47.250;11.332;2024-02-28T01:35:22;24.10;;;16.10;;
76989;SDS011;65924;47.250;11.332;2024-02-28T01:35:53;24.50;;;16.10;;
76989;SDS011;65924;47.250;11.332;2024-02-28T01:36:23;22.20;;;15.20;;
76989;SDS011;65924;47.250;11.332;2024-02-28T01:36:53;24.20;;;16.30;;
76989;SDS011;65924;47.250;11.332;2024-02-28T01:37:24;24.60;;;16.20;;
76989;SDS011;65924;47.250;11.332;2024-02-28T01:37:54;25.90;;;15.90;;
76989;SDS011;65924;47.250;11.332;2024-02-28T01:38:25;21.10;;;14.60;;
76989;SDS011;65924;47.250;11.332;2024-02-28T01:38:57;25.60;;;16.80;;
76989;SDS011;65924;47.250;11.332;2024-02-28T01:39:27;23.90;;;16.30;;
76989;SDS011;65924;47.250;11.332;2024-02-28T01:39:57;23.60;;;14.80;;
76989;SDS011;65924;47.250;11.332;2024-02-28T01:40:28;24.40;;;15.70;;
76989;SDS011;65924;47.250;11.332;2024-02-28T01:40:58;23.10;;;15.10;;
76989;SDS011;65924;47.250;11.332;2024-02-28T01:41:29;20.10;;;14.40;;
76989;SDS011;65924;47.250;11.332;2024-02-28T01:41:59;21.50;;;15.30;;
76989;SDS011;65924;47.250;11.332;2024-02-28T01:42:29;22.50;;;16.00;;
76989;SDS011;65924;47.250;11.332;2024-02-28T01:43:19;23.10;;;15.90;;
76989;SDS011;65924;47.250;11.332;2024-02-28T01:43:50;21.50;;;15.20;;
76989;SDS011;65924;47.250;11.332;2024-02-28T01:44:20;21.30;;;14.90;;
76989;SDS011;65924;47.250;11.332;2024-02-28T01:44:51;23.20;;;15.20;;
76989;SDS011;65924;47.250;11.332;2024-02-28T01:45:22;23.80;;;15.00;;
76989;SDS011;65924;47.250;11.332;2024-02-28T01:45:52;21.20;;;14.70;;
76989;SDS011;65924;47.250;11.332;2024-02-28T01:46:26;23.90;;;15.10;;
76989;SDS011;65924;47.250;11.332;2024-02-28T01:46:57;20.20;;;14.20;;
76989;SDS011;65924;47.250;11.332;2024-02-28T01:47:28;24.30;;;15.70;;
76989;SDS011;65924;47.250;11.332;2024-02-28T01:47:59;21.90;;;14.80;;
76989;SDS011;65924;47.250;11.332;2024-02-28T01:48:29;23.90;;;15.70;;
76989;SDS011;65924;47.250;11.332;2024-02-28T01:49:00;21.00;;;14.40;;
76989;SDS011;65924;47.250;11.332;2024-02-28T01:49:31;21.70;;;14.60;;
76989;SDS011;65924;47.250;11.332;2024-02-28T01:50:01;22.60;;;15.20;;
76989;SDS011;65924;47.250;11.332;2024-02-28T01:50:32;23.60;;;16.10;;
76989;SDS011;65924;47.250;11.332;2024-02-28T01:51:03;22.00;;;16.10;;
76989;SDS011;65924;47.250;11.332;2024-02-28T01:51:33;23.10;;;16.50;;
76989;SDS011;65924;47.250;11.332;2024-02-28T01:52:04;22.90;;;15.40;;
76989;SDS011;65924;47.250;11.332;2024-02-28T01:52:35;22.90;;;16.40;;
76989;SDS011;65924;47.250;11.332;2024-02-28T01:53:08;25.80;;;15.70;;
76989;SDS011;65924;47.250;11.332;2024-02-28T01:53:39;24.60;;;15.70;;
76989;SDS011;65924;47.250;11.332;2024-02-28T01:54:10;24.70;;;15.90;;
76989;SDS011;65924;47.250;11.332;2024-02-28T01:54:40;24.50;;;16.90;;
76989;SDS011;65924;47.250;11.332;2024-02-28T01:55:12;21.70;;;15.80;;
76989;SDS011;65924;47.250;11.332;2024-02-28T01:55:42;21.00;;;15.10;;
76989;SDS011;65924;47.250;11.332;2024-02-28T01:56:13;22.00;;;14.90;;
76989;SDS011;65924;47.250;11.332;2024-02-28T01:56:44;23.30;;;14.20;;
76989;SDS011;65924;47.250;11.332;2024-02-28T01:57:15;20.20;;;15.10;;
76989;SDS011;65924;47.250;11.332;2024-02-28T01:57:46;21.20;;;15.40;;
76989;SDS011;65924;47.250;11.332;2024-02-28T01:58:17;21.80;;;16.00;;
76989;SDS011;65924;47.250;11.332;2024-02-28T01:58:48;22.30;;;16.40;;
76989;SDS011;65924;47.250;11.332;2024-02-28T01:59:19;23.30;;;16.20;;
76989;SDS011;65924;47.250;11.332;2024-02-28T01:59:50;22.00;;;15.50;;
76989;SDS011;65924;47.250;11.332;2024-02-28T02:00:20;23.10;;;15.10;;
76989;SDS011;65924;47.250;11.332;2024-02-28T02:00:51;22.30;;;15.80;;
76989;SDS011;65924;47.250;11.332;2024-02-28T02:01:22;23.40;;;16.10;;
76989;SDS011;65924;47.250;11.332;2024-02-28T02:01:55;22.20;;;15.20;;
76989;SDS011;65924;47.250;11.332;2024-02-28T02:02:26;22.80;;;17.50;;
76989;SDS011;65924;47.250;11.332;2024-02-28T02:02:56;23.50;;;15.50;;
76989;SDS011;65924;47.250;11.332;2024-02-28T02:03:27;21.30;;;15.20;;
76989;SDS011;65924;47.250;11.332;2024-02-28T02:03:57;23.80;;;15.60;;
76989;SDS011;65924;47.250;11.332;2024-02-28T02:04:28;23.20;;;15.50;;
76989;SDS011;65924;47.250;11.332;2024-02-28T02:04:59;23.50;;;15.30;;
76989;SDS011;65924;47.250;11.332;2024-02-28T02:05:29;21.70;;;16.20;;
76989;SDS011;65924;47.250;11.332;2024-02-28T02:06:01;22.10;;;16.10;;
76989;SDS011;65924;47.250;11.332;2024-02-28T02:06:32;22.70;;;15.30;;
76989;SDS011;65924;47.250;11.332;2024-02-28T02:07:03;22.20;;;15.20;;
76989;SDS011;65924;47.250;11.332;2024-02-28T02:07:33;20.70;;;15.20;;
76989;SDS011;65924;47.250;11.332;2024-02-28T02:08:05;21.30;;;15.80;;
76989;SDS011;65924;47.250;11.332;2024-02-28T02:08:36;23.30;;;16.10;;
76989;SDS011;65924;47.250;11.332;2024-02-28T02:09:06;22.10;;;15.20;;
76989;SDS011;65924;47.250;11.332;2024-02-28T02:09:37;22.90;;;16.00;;
76989;SDS011;65924;47.250;11.332;2024-02-28T02:10:08;20.70;;;14.20;;
76989;SDS011;65924;47.250;11.332;2024-02-28T02:10:41;21.60;;;16.10;;
76989;SDS011;65924;47.250;11.332;2024-02-28T02:11:11;21.00;;;14.80;;
76989;SDS011;65924;47.250;11.332;2024-02-28T02:11:42;22.20;;;16.70;;
76989;SDS011;65924;47.250;11.332;2024-02-28T02:12:13;23.30;;;15.60;;
76989;SDS011;65924;47.250;11.332;2024-02-28T02:12:43;23.00;;;14.80;;
76989;SDS011;65924;47.250;11.332;2024-02-28T02:13:14;21.40;;;15.30;;
76989;SDS011;65924;47.250;11.332;2024-02-28T02:13:48;22.20;;;16.00;;
76989;SDS011;65924;47.250;11.332;2024-02-28T02:14:19;23.20;;;15.80;;
76989;SDS011;65924;47.250;11.332;2024-02-28T02:14:50;22.20;;;15.40;;
76989;SDS011;65924;47.250;11.332;2024-02-28T02:15:20;21.30;;;15.50;;
76989;SDS011;65924;47.250;11.332;2024-02-28T02:15:51;22.00;;;15.30;;
76989;SDS011;65924;47.250;11.332;2024-02-28T02:16:24;22.40;;;15.80;;
76989;SDS011;65924;47.250;11.332;2024-02-28T02:16:58;21.50;;;15.70;;
76989;SDS011;65924;47.250;11.332;2024-02-28T02:17:28;21.00;;;13.60;;
76989;SDS011;65924;47.250;11.332;2024-02-28T02:17:59;21.20;;;15.40;;
76989;SDS011;65924;47.250;11.332;2024-02-28T02:18:29;23.40;;;15.90;;
76989;SDS011;65924;47.250;11.332;2024-02-28T02:19:00;20.20;;;14.30;;
76989;SDS011;65924;47.250;11.332;2024-02-28T02:19:30;22.80;;;15.60;;
76989;SDS011;65924;47.250;11.332;2024-02-28T02:20:01;22.50;;;16.00;;
76989;SDS011;65924;47.250;11.332;2024-02-28T02:20:32;21.40;;;15.20;;
76989;SDS011;65924;47.250;11.332;2024-02-28T02:21:05;21.70;;;15.30;;
76989;SDS011;65924;47.250;11.332;2024-02-28T02:22:10;23.50;;;17.00;;
76989;SDS011;65924;47.250;11.332;2024-02-28T02:22:34;19.50;;;14.00;;
76989;SDS011;65924;47.250;11.332;2024-02-28T02:23:06;25.00;;;15.30;;
76989;SDS011;65924;47.250;11.332;2024-02-28T02:23:36;22.00;;;15.30;;
76989;SDS011;65924;47.250;11.332;2024-02-28T02:24:11;23.00;;;15.40;;
76989;SDS011;65924;47.250;11.332;2024-02-28T02:24:42;21.80;;;15.80;;
76989;SDS011;65924;47.250;11.332;2024-02-28T02:25:12;22.00;;;15.60;;
76989;SDS011;65924;47.250;11.332;2024-02-28T02:25:47;24.90;;;16.00;;
76989;SDS011;65924;47.250;11.332;2024-02-28T02:26:18;20.10;;;15.00;;
76989;SDS011;65924;47.250;11.332;2024-02-28T02:26:48;22.30;;;16.40;;
76989;SDS011;65924;47.250;11.332;2024-02-28T02:27:23;23.80;;;16.60;;
76989;SDS011;65924;47.250;11.332;2024-02-28T02:27:54;33.80;;;22.10;;
76989;SDS011;65924;47.250;11.332;2024-02-28T02:28:24;60.00;;;35.00;;
76989;SDS011;65924;47.250;11.332;2024-02-28T02:28:55;37.10;;;23.10;;
76989;SDS011;65924;47.250;11.332;2024-02-28T02:29:25;31.50;;;21.50;;
76989;SDS011;65924;47.250;11.332;2024-02-28T02:29:57;30.70;;;19.40;;
76989;SDS011;65924;47.250;11.332;2024-02-28T02:30:28;29.40;;;18.10;;
76989;SDS011;65924;47.250;11.332;2024-02-28T02:30:58;26.20;;;16.80;;
76989;SDS011;65924;47.250;11.332;2024-02-28T02:31:29;26.80;;;17.90;;
76989;SDS011;65924;47.250;11.332;2024-02-28T02:31:59;28.00;;;19.20;;
76989;SDS011;65924;47.250;11.332;2024-02-28T02:32:30;30.60;;;19.50;;
76989;SDS011;65924;47.250;11.332;2024-02-28T02:33:00;29.90;;;19.10;;
76989;SDS011;65924;47.250;11.332;2024-02-28T02:33:30;27.10;;;17.70;;
76989;SDS011;65924;47.250;11.332;2024-02-28T02:34:01;28.70;;;18.80;;
76989;SDS011;65924;47.250;11.332;2024-02-28T02:34:31;27.20;;;17.60;;
76989;SDS011;65924;47.250;11.332;2024-02-28T02:35:02;25.10;;;16.80;;
76989;SDS011;65924;47.250;11.332;2024-02-28T02:35:33;26.00;;;17.00;;
76989;SDS011;65924;47.250;11.332;2024-02-28T02:36:03;22.60;;;16.50;;
76989;SDS011;65924;47.250;11.332;2024-02-28T02:36:34;26.10;;;17.10;;
76989;SDS011;65924;47.250;11.332;2024-02-28T02:37:04;25.80;;;17.80;;
76989;SDS011;65924;47.250;11.332;2024-02-28T02:37:42;26.30;;;17.30;;
76989;SDS011;65924;47.250;11.332;2024-02-28T02:38:14;24.90;;;17.40;;
76989;SDS011;65924;47.250;11.332;2024-02-28T02:38:45;32.30;;;17.60;;
76989;SDS011;65924;47.250;11.332;2024-02-28T02:39:16;23.90;;;16.20;;
76989;SDS011;65924;47.250;11.332;2024-02-28T02:39:46;26.10;;;17.10;;
76989;SDS011;65924;47.250;11.332;2024-02-28T02:40:17;24.90;;;16.20;;
76989;SDS011;65924;47.250;11.332;2024-02-28T02:40:50;23.50;;;16.10;;
76989;SDS011;65924;47.250;11.332;2024-02-28T02:41:21;22.70;;;15.60;;
76989;SDS011;65924;47.250;11.332;2024-02-28T02:41:51;21.80;;;15.30;;
76989;SDS011;65924;47.250;11.332;2024-02-28T02:42:22;23.70;;;15.60;;
76989;SDS011;65924;47.250;11.332;2024-02-28T02:42:52;22.80;;;16.20;;
76989;SDS011;65924;47.250;11.332;2024-02-28T02:43:23;19.80;;;15.10;;
76989;SDS011;65924;47.250;11.332;2024-02-28T02:43:53;24.00;;;14.90;;
76989;SDS011;65924;47.250;11.332;2024-02-28T02:44:24;22.90;;;15.80;;
76989;SDS011;65924;47.250;11.332;2024-02-28T02:44:54;23.10;;;14.20;;
76989;SDS011;65924;47.250;11.332;2024-02-28T02:45:25;21.60;;;14.80;;
76989;SDS011;65924;47.250;11.332;2024-02-28T02:45:55;20.10;;;14.10;;
76989;SDS011;65924;47.250;11.332;2024-02-28T02:46:25;22.80;;;14.10;;
76989;SDS011;65924;47.250;11.332;2024-02-28T02:46:56;20.40;;;14.70;;
76989;SDS011;65924;47.250;11.332;2024-02-28T02:47:26;22.00;;;14.30;;
76989;SDS011;65924;47.250;11.332;2024-02-28T02:47:57;20.00;;;14.20;;
76989;SDS011;65924;47.250;11.332;2024-02-28T02:48:27;20.90;;;14.00;;
76989;SDS011;65924;47.250;11.332;2024-02-28T02:48:58;21.20;;;14.10;;
76989;SDS011;65924;47.250;11.332;2024-02-28T02:49:28;21.70;;;15.00;;
76989;SDS011;65924;47.250;11.332;2024-02-28T02:49:58;21.20;;;14.00;;
76989;SDS011;65924;47.250;11.332;2024-02-28T02:50:29;21.80;;;13.90;;
76989;SDS011;65924;47.250;11.332;2024-02-28T02:50:59;20.30;;;14.40;;
76989;SDS011;65924;47.250;11.332;2024-02-28T02:51:30;21.10;;;14.20;;
76989;SDS011;65924;47.250;11.332;2024-02-28T02:52:00;20.90;;;13.80;;
76989;SDS011;65924;47.250;11.332;2024-02-28T02:52:31;19.80;;;13.40;;
76989;SDS011;65924;47.250;11.332;2024-02-28T02:53:02;19.70;;;13.80;;
76989;SDS011;65924;47.250;11.332;2024-02-28T02:53:32;20.90;;;15.00;;
76989;SDS011;65924;47.250;11.332;2024-02-28T02:54:03;22.70;;;14.70;;
76989;SDS011;65924;47.250;11.332;2024-02-28T02:54:33;19.40;;;14.30;;
76989;SDS011;65924;47.250;11.332;2024-02-28T02:55:04;21.50;;;15.30;;
76989;SDS011;65924;47.250;11.332;2024-02-28T02:56:06;25.20;;;15.00;;
76989;SDS011;65924;47.250;11.332;2024-02-28T02:56:37;21.50;;;14.90;;
76989;SDS011;65924;47.250;11.332;2024-02-28T02:57:07;21.20;;;15.10;;
76989;SDS011;65924;47.250;11.332;2024-02-28T02:57:39;22.00;;;15.80;;
76989;SDS011;65924;47.250;11.332;2024-02-28T02:58:09;21.40;;;15.50;;
76989;SDS011;65924;47.250;11.332;2024-02-28T02:58:39;21.60;;;14.90;;
76989;SDS011;65924;47.250;11.332;2024-02-28T02:59:10;24.90;;;15.60;;
76989;SDS011;65924;47.250;11.332;2024-02-28T02:59:42;19.60;;;14.60;;
76989;SDS011;65924;47.250;11.332;2024-02-28T03:00:12;22.70;;;15.10;;
76989;SDS011;65924;47.250;11.332;2024-02-28T03:00:42;25.60;;;15.80;;